sensor_id;sensor_type;location;lat;lon;timestamp;pressure;altitude;pressure_sealevel;temperature;humidity
43553;BME280;29153;42.696;23.218;2024-02-21T00:00:04;95109.48;;;4.93;100.00
43553;BME280;29153;42.696;23.218;2024-02-21T00:02:32;95107.61;;;4.91;100.00
43553;BME280;29153;42.696;23.218;2024-02-21T00:04:59;95102.17;;;4.83;100.00
43553;BME280;29153;42.696;23.218;2024-02-21T00:07:27;95104.27;;;4.84;100.00
43553;BME280;29153;42.696;23.218;2024-02-21T00:09:54;95106.78;;;4.79;100.00
43553;BME280;29153;42.696;23.218;2024-02-21T00:12:22;95105.58;;;4.84;100.00
43553;BME280;29153;42.696;23.218;2024-02-21T00:14:49;95103.70;;;4.82;100.00
43553;BME280;29153;42.696;23.218;2024-02-21T00:17:17;95102.44;;;4.84;100.00
43553;BME280;29153;42.696;23.218;2024-02-21T00:19:44;95101.80;;;4.80;100.00
43553;BME280;29153;42.696;23.218;2024-02-21T00:22:12;95106.54;;;4.80;100.00
43553;BME280;29153;42.696;23.218;2024-02-21T00:24:39;95103.75;;;4.84;100.00
43553;BME280;29153;42.696;23.218;2024-02-21T00:27:07;95098.45;;;4.82;100.00
43553;BME280;29153;42.696;23.218;2024-02-21T00:29:34;95095.97;;;4.87;100.00
43553;BME280;29153;42.696;23.218;2024-02-21T00:32:02;95096.98;;;4.86;100.00
43553;BME280;29153;42.696;23.218;2024-02-21T00:34:30;95097.14;;;4.82;100.00
43553;BME280;29153;42.696;23.218;2024-02-21T00:36:57;95095.88;;;4.84;100.00
43553;BME280;29153;42.696;23.218;2024-02-21T00:39:25;95095.22;;;4.89;100.00
43553;BME280;29153;42.696;23.218;2024-02-21T00:41:52;95095.05;;;4.93;100.00
43553;BME280;29153;42.696;23.218;2024-02-21T00:44:20;95089.64;;;4.97;100.00
43553;BME280;29153;42.696;23.218;2024-02-21T00:46:47;95087.31;;;4.98;100.00
43553;BME280;29153;42.696;23.218;2024-02-21T00:49:15;95084.50;;;4.90;100.00
43553;BME280;29153;42.696;23.218;2024-02-21T00:51:42;95095.34;;;4.94;100.00
43553;BME280;29153;42.696;23.218;2024-02-21T00:54:10;95093.17;;;4.91;100.00
43553;BME280;29153;42.696;23.218;2024-02-21T00:56:37;95085.52;;;4.89;100.00
43553;BME280;29153;42.696;23.218;2024-02-21T00:59:04;95080.27;;;4.89;100.00
43553;BME280;29153;42.696;23.218;2024-02-21T01:01:32;95075.23;;;4.88;100.00
43553;BME280;29153;42.696;23.218;2024-02-21T01:04:00;95068.11;;;4.86;100.00
43553;BME280;29153;42.696;23.218;2024-02-21T01:06:27;95075.98;;;4.86;100.00
43553;BME280;29153;42.696;23.218;2024-02-21T01:08:55;95066.20;;;4.84;100.00
43553;BME280;29153;42.696;23.218;2024-02-21T01:11:22;95068.78;;;4.81;100.00
43553;BME280;29153;42.696;23.218;2024-02-21T01:13:50;95067.47;;;4.81;100.00
43553;BME280;29153;42.696;23.218;2024-02-21T01:19:00;95060.95;;;4.84;100.00
43553;BME280;29153;42.696;23.218;2024-02-21T01:21:27;95066.95;;;4.82;100.00
43553;BME280;29153;42.696;23.218;2024-02-21T01:23:55;95061.41;;;4.81;100.00
43553;BME280;29153;42.696;23.218;2024-02-21T01:26:22;95060.85;;;4.79;100.00
43553;BME280;29153;42.696;23.218;2024-02-21T01:28:50;95060.95;;;4.84;100.00
43553;BME280;29153;42.696;23.218;2024-02-21T01:31:18;95061.09;;;4.89;100.00
43553;BME280;29153;42.696;23.218;2024-02-21T01:33:46;95062.99;;;4.91;100.00
43553;BME280;29153;42.696;23.218;2024-02-21T01:36:14;95054.69;;;4.85;100.00
43553;BME280;29153;42.696;23.218;2024-02-21T01:38:42;95053.38;;;4.85;100.00
43553;BME280;29153;42.696;23.218;2024-02-21T01:41:09;95053.94;;;4.96;100.00
43553;BME280;29153;42.696;23.218;2024-02-21T01:43:36;95054.82;;;4.90;100.00
43553;BME280;29153;42.696;23.218;2024-02-21T01:46:04;95048.23;;;4.99;100.00
43553;BME280;29153;42.696;23.218;2024-02-21T01:48:32;95053.44;;;5.08;100.00
43553;BME280;29153;42.696;23.218;2024-02-21T01:50:59;95043.78;;;4.99;100.00
43553;BME280;29153;42.696;23.218;2024-02-21T01:53:29;95052.36;;;4.86;100.00
43553;BME280;29153;42.696;23.218;2024-02-21T01:55:57;95051.61;;;4.88;100.00
43553;BME280;29153;42.696;23.218;2024-02-21T01:58:25;95045.42;;;4.91;100.00
43553;BME280;29153;42.696;23.218;2024-02-21T02:00:54;95053.51;;;4.90;100.00
43553;BME280;29153;42.696;23.218;2024-02-21T02:03:24;95047.08;;;4.95;100.00
43553;BME280;29153;42.696;23.218;2024-02-21T02:05:52;95045.42;;;4.91;100.00
43553;BME280;29153;42.696;23.218;2024-02-21T02:08:20;95043.44;;;4.96;100.00
43553;BME280;29153;42.696;23.218;2024-02-21T02:10:49;95049.57;;;4.90;100.00
43553;BME280;29153;42.696;23.218;2024-02-21T02:13:17;95044.91;;;4.92;100.00
43553;BME280;29153;42.696;23.218;2024-02-21T02:15:45;95046.48;;;4.93;100.00
43553;BME280;29153;42.696;23.218;2024-02-21T02:18:15;95042.20;;;4.89;100.00
43553;BME280;29153;42.696;23.218;2024-02-21T02:20:44;95034.28;;;4.87;100.00
43553;BME280;29153;42.696;23.218;2024-02-21T02:23:23;95036.91;;;4.87;100.00
43553;BME280;29153;42.696;23.218;2024-02-21T02:25:51;95031.82;;;4.83;100.00
43553;BME280;29153;42.696;23.218;2024-02-21T02:28:19;95032.28;;;4.71;100.00
43553;BME280;29153;42.696;23.218;2024-02-21T02:30:47;95026.69;;;4.67;100.00
43553;BME280;29153;42.696;23.218;2024-02-21T02:33:15;95031.26;;;4.72;100.00
43553;BME280;29153;42.696;23.218;2024-02-21T02:35:46;95024.56;;;4.67;100.00
43553;BME280;29153;42.696;23.218;2024-02-21T02:38:13;95022.23;;;4.68;100.00
43553;BME280;29153;42.696;23.218;2024-02-21T02:40:41;95017.31;;;4.59;100.00
43553;BME280;29153;42.696;23.218;2024-02-21T02:43:09;95019.08;;;4.56;100.00
43553;BME280;29153;42.696;23.218;2024-02-21T02:45:37;95016.69;;;4.46;100.00
43553;BME280;29153;42.696;23.218;2024-02-21T02:48:05;95024.80;;;4.44;100.00
43553;BME280;29153;42.696;23.218;2024-02-21T02:50:32;95018.91;;;4.40;100.00
43553;BME280;29153;42.696;23.218;2024-02-21T02:53:00;95023.23;;;4.25;100.00
43553;BME280;29153;42.696;23.218;2024-02-21T02:55:27;95022.83;;;4.19;100.00
43553;BME280;29153;42.696;23.218;2024-02-21T02:57:55;95018.02;;;4.07;100.00
43553;BME280;29153;42.696;23.218;2024-02-21T03:00:23;95023.03;;;4.18;100.00
43553;BME280;29153;42.696;23.218;2024-02-21T03:02:50;94972.11;;;3.77;100.00
43553;BME280;29153;42.696;23.218;2024-02-21T03:05:20;95023.40;;;4.12;100.00
43553;BME280;29153;42.696;23.218;2024-02-21T03:07:48;95023.65;;;4.01;100.00
43553;BME280;29153;42.696;23.218;2024-02-21T03:10:16;95024.45;;;4.02;100.00
43553;BME280;29153;42.696;23.218;2024-02-21T03:12:44;95031.72;;;4.00;100.00
43553;BME280;29153;42.696;23.218;2024-02-21T03:15:12;95024.95;;;4.01;100.00
43553;BME280;29153;42.696;23.218;2024-02-21T03:17:41;95029.55;;;3.97;100.00
43553;BME280;29153;42.696;23.218;2024-02-21T03:20:08;95029.91;;;4.00;100.00
43553;BME280;29153;42.696;23.218;2024-02-21T03:22:37;94970.19;;;3.63;100.00
43553;BME280;29153;42.696;23.218;2024-02-21T03:25:05;95032.08;;;3.94;100.00
43553;BME280;29153;42.696;23.218;2024-02-21T03:27:32;95032.83;;;3.92;100.00
43553;BME280;29153;42.696;23.218;2024-02-21T03:30:00;95034.20;;;3.86;100.00
43553;BME280;29153;42.696;23.218;2024-02-21T03:32:27;95034.84;;;3.90;100.00
43553;BME280;29153;42.696;23.218;2024-02-21T03:34:55;95038.42;;;3.87;100.00
43553;BME280;29153;42.696;23.218;2024-02-21T03:37:22;95039.67;;;3.93;100.00
43553;BME280;29153;42.696;23.218;2024-02-21T03:39:50;95036.91;;;3.88;100.00
43553;BME280;29153;42.696;23.218;2024-02-21T03:42:18;95039.02;;;3.89;100.00
43553;BME280;29153;42.696;23.218;2024-02-21T03:44:45;95035.89;;;3.80;100.00
43553;BME280;29153;42.696;23.218;2024-02-21T03:47:13;95037.25;;;3.74;100.00
43553;BME280;29153;42.696;23.218;2024-02-21T03:49:41;95040.03;;;3.79;100.00
43553;BME280;29153;42.696;23.218;2024-02-21T03:52:08;95037.11;;;3.78;100.00
43553;BME280;29153;42.696;23.218;2024-02-21T03:54:36;95044.67;;;3.86;100.00
43553;BME280;29153;42.696;23.218;2024-02-21T03:57:05;95041.78;;;3.85;100.00
43553;BME280;29153;42.696;23.218;2024-02-21T03:59:33;95040.69;;;3.83;100.00
43553;BME280;29153;42.696;23.218;2024-02-21T04:02:00;95049.05;;;3.83;100.00
43553;BME280;29153;42.696;23.218;2024-02-21T04:04:29;95048.04;;;3.84;100.00
43553;BME280;29153;42.696;23.218;2024-02-21T04:06:57;95044.16;;;3.77;100.00
43553;BME280;29153;42.696;23.218;2024-02-21T04:09:24;95043.36;;;3.77;100.00
43553;BME280;29153;42.696;23.218;2024-02-21T04:11:52;95044.11;;;3.84;100.00
43553;BME280;29153;42.696;23.218;2024-02-21T04:14:19;95039.31;;;3.81;100.00
43553;BME280;29153;42.696;23.218;2024-02-21T04:16:46;95045.13;;;3.83;100.00
43553;BME280;29153;42.696;23.218;2024-02-21T04:19:14;95042.14;;;3.79;100.00
43553;BME280;29153;42.696;23.218;2024-02-21T04:21:41;95038.80;;;3.63;100.00
43553;BME280;29153;42.696;23.218;2024-02-21T04:24:09;95039.45;;;3.68;100.00
43553;BME280;29153;42.696;23.218;2024-02-21T04:26:36;95044.38;;;3.57;100.00
43553;BME280;29153;42.696;23.218;2024-02-21T04:29:04;95043.14;;;3.42;100.00
43553;BME280;29153;42.696;23.218;2024-02-21T04:31:33;95043.05;;;3.39;100.00
43553;BME280;29153;42.696;23.218;2024-02-21T04:34:00;95043.05;;;3.39;100.00
43553;BME280;29153;42.696;23.218;2024-02-21T04:36:29;95040.14;;;3.29;100.00
43553;BME280;29153;42.696;23.218;2024-02-21T04:38:56;95040.98;;;3.23;100.00
43553;BME280;29153;42.696;23.218;2024-02-21T04:41:24;95051.06;;;3.10;100.00
43553;BME280;29153;42.696;23.218;2024-02-21T04:43:52;95044.41;;;2.83;100.00
43553;BME280;29153;42.696;23.218;2024-02-21T04:46:19;95053.80;;;2.82;100.00
43553;BME280;29153;42.696;23.218;2024-02-21T04:48:47;95057.98;;;2.73;100.00
43553;BME280;29153;42.696;23.218;2024-02-21T04:51:14;95061.69;;;2.59;100.00
43553;BME280;29153;42.696;23.218;2024-02-21T04:53:42;95058.09;;;2.54;100.00
43553;BME280;29153;42.696;23.218;2024-02-21T04:56:09;95057.55;;;2.45;100.00
43553;BME280;29153;42.696;23.218;2024-02-21T04:58:40;95059.59;;;2.37;100.00
43553;BME280;29153;42.696;23.218;2024-02-21T05:01:07;95055.55;;;2.25;100.00
43553;BME280;29153;42.696;23.218;2024-02-21T05:03:35;95051.77;;;2.14;100.00
43553;BME280;29153;42.696;23.218;2024-02-21T05:06:02;95054.60;;;2.13;100.00
43553;BME280;29153;42.696;23.218;2024-02-21T05:14:11;95058.70;;;1.96;100.00
43553;BME280;29153;42.696;23.218;2024-02-21T05:16:39;95057.50;;;1.92;100.00
43553;BME280;29153;42.696;23.218;2024-02-21T05:19:06;95053.59;;;1.92;100.00
43553;BME280;29153;42.696;23.218;2024-02-21T05:21:34;95066.53;;;1.96;100.00
43553;BME280;29153;42.696;23.218;2024-02-21T05:24:01;95060.80;;;1.96;100.00
43553;BME280;29153;42.696;23.218;2024-02-21T05:26:29;95062.84;;;1.88;100.00
43553;BME280;29153;42.696;23.218;2024-02-21T05:28:57;95055.17;;;1.93;100.00
43553;BME280;29153;42.696;23.218;2024-02-21T05:31:25;95061.20;;;1.93;100.00
43553;BME280;29153;42.696;23.218;2024-02-21T05:33:52;95053.23;;;1.97;100.00
43553;BME280;29153;42.696;23.218;2024-02-21T05:36:20;95060.64;;;2.07;100.00
43553;BME280;29153;42.696;23.218;2024-02-21T05:38:47;95055.79;;;2.17;100.00
43553;BME280;29153;42.696;23.218;2024-02-21T05:41:15;95054.55;;;2.26;100.00
43553;BME280;29153;42.696;23.218;2024-02-21T05:43:42;95053.95;;;2.40;100.00
43553;BME280;29153;42.696;23.218;2024-02-21T05:46:10;95061.27;;;2.47;100.00
43553;BME280;29153;42.696;23.218;2024-02-21T05:48:37;95063.70;;;2.57;100.00
43553;BME280;29153;42.696;23.218;2024-02-21T05:51:05;95068.15;;;2.72;100.00
43553;BME280;29153;42.696;23.218;2024-02-21T05:53:32;95067.89;;;2.81;100.00
43553;BME280;29153;42.696;23.218;2024-02-21T05:56:00;95068.13;;;2.88;100.00
43553;BME280;29153;42.696;23.218;2024-02-21T05:58:28;95074.81;;;3.09;100.00
43553;BME280;29153;42.696;23.218;2024-02-21T06:00:57;95078.47;;;3.08;100.00
43553;BME280;29153;42.696;23.218;2024-02-21T06:03:24;95073.91;;;3.21;100.00
43553;BME280;29153;42.696;23.218;2024-02-21T06:05:52;95080.71;;;3.38;100.00
43553;BME280;29153;42.696;23.218;2024-02-21T06:08:19;95078.44;;;3.57;100.00
43553;BME280;29153;42.696;23.218;2024-02-21T06:10:47;95084.92;;;3.73;100.00
43553;BME280;29153;42.696;23.218;2024-02-21T06:13:15;95086.45;;;3.90;100.00
43553;BME280;29153;42.696;23.218;2024-02-21T06:15:42;95086.47;;;3.99;100.00
43553;BME280;29153;42.696;23.218;2024-02-21T06:18:10;95092.37;;;4.12;100.00
43553;BME280;29153;42.696;23.218;2024-02-21T06:20:37;95090.39;;;4.26;100.00
43553;BME280;29153;42.696;23.218;2024-02-21T06:23:07;95100.37;;;4.36;100.00
43553;BME280;29153;42.696;23.218;2024-02-21T06:25:35;95098.36;;;4.49;100.00
43553;BME280;29153;42.696;23.218;2024-02-21T06:28:02;95090.70;;;4.66;100.00
43553;BME280;29153;42.696;23.218;2024-02-21T06:30:30;95106.17;;;4.86;100.00
43553;BME280;29153;42.696;23.218;2024-02-21T06:32:57;95110.91;;;5.07;100.00
43553;BME280;29153;42.696;23.218;2024-02-21T06:35:26;95121.30;;;5.14;100.00
43553;BME280;29153;42.696;23.218;2024-02-21T06:37:53;95115.69;;;5.31;100.00
43553;BME280;29153;42.696;23.218;2024-02-21T06:40:27;95129.72;;;5.45;100.00
43553;BME280;29153;42.696;23.218;2024-02-21T06:42:51;95130.53;;;5.69;100.00
43553;BME280;29153;42.696;23.218;2024-02-21T06:45:18;95128.05;;;5.86;100.00
43553;BME280;29153;42.696;23.218;2024-02-21T06:47:46;95138.50;;;5.95;100.00
43553;BME280;29153;42.696;23.218;2024-02-21T06:50:13;95139.70;;;6.13;99.96
43553;BME280;29153;42.696;23.218;2024-02-21T06:52:42;95132.91;;;6.15;99.45
43553;BME280;29153;42.696;23.218;2024-02-21T06:55:10;95139.34;;;6.21;98.80
43553;BME280;29153;42.696;23.218;2024-02-21T06:57:38;95147.91;;;6.40;97.41
43553;BME280;29153;42.696;23.218;2024-02-21T07:00:06;95152.59;;;6.38;95.98
43553;BME280;29153;42.696;23.218;2024-02-21T07:02:36;95144.88;;;6.46;96.59
43553;BME280;29153;42.696;23.218;2024-02-21T07:05:04;95147.88;;;6.52;96.10
43553;BME280;29153;42.696;23.218;2024-02-21T07:07:31;95152.19;;;6.69;95.56
43553;BME280;29153;42.696;23.218;2024-02-21T07:10:01;95155.80;;;6.66;95.25
43553;BME280;29153;42.696;23.218;2024-02-21T07:12:28;95157.23;;;6.71;94.96
43553;BME280;29153;42.696;23.218;2024-02-21T07:14:56;95155.72;;;6.75;95.36
43553;BME280;29153;42.696;23.218;2024-02-21T07:17:23;95159.78;;;6.80;93.86
43553;BME280;29153;42.696;23.218;2024-02-21T07:19:51;95158.91;;;6.77;93.69
43553;BME280;29153;42.696;23.218;2024-02-21T07:22:18;95157.37;;;6.78;93.61
43553;BME280;29153;42.696;23.218;2024-02-21T07:24:46;95158.93;;;6.91;93.42
43553;BME280;29153;42.696;23.218;2024-02-21T07:27:15;95158.41;;;6.92;92.02
43553;BME280;29153;42.696;23.218;2024-02-21T07:29:43;95158.84;;;7.00;92.74
43553;BME280;29153;42.696;23.218;2024-02-21T07:32:13;95160.06;;;7.09;92.80
43553;BME280;29153;42.696;23.218;2024-02-21T07:34:40;95163.45;;;7.21;93.10
43553;BME280;29153;42.696;23.218;2024-02-21T07:37:07;95165.36;;;7.40;92.03
43553;BME280;29153;42.696;23.218;2024-02-21T07:39:38;95170.05;;;7.52;91.25
43553;BME280;29153;42.696;23.218;2024-02-21T07:42:06;95170.05;;;7.52;91.25
43553;BME280;29153;42.696;23.218;2024-02-21T07:44:33;95136.09;;;7.39;89.91
43553;BME280;29153;42.696;23.218;2024-02-21T07:47:02;95168.42;;;7.65;90.42
43553;BME280;29153;42.696;23.218;2024-02-21T07:49:29;95173.09;;;7.61;89.10
43553;BME280;29153;42.696;23.218;2024-02-21T07:51:57;95168.77;;;7.55;89.26
43553;BME280;29153;42.696;23.218;2024-02-21T07:54:24;95168.63;;;7.61;89.21
43553;BME280;29153;42.696;23.218;2024-02-21T07:56:52;95164.43;;;7.49;89.06
43553;BME280;29153;42.696;23.218;2024-02-21T07:59:19;95163.58;;;7.60;89.54
43553;BME280;29153;42.696;23.218;2024-02-21T08:01:47;95163.86;;;7.61;89.25
43553;BME280;29153;42.696;23.218;2024-02-21T08:04:14;95161.43;;;7.57;89.14
43553;BME280;29153;42.696;23.218;2024-02-21T08:06:42;95158.19;;;7.69;89.02
43553;BME280;29153;42.696;23.218;2024-02-21T08:09:11;95159.83;;;7.72;88.81
43553;BME280;29153;42.696;23.218;2024-02-21T08:11:39;95157.61;;;7.84;88.48
43553;BME280;29153;42.696;23.218;2024-02-21T08:14:06;95154.66;;;7.97;89.03
43553;BME280;29153;42.696;23.218;2024-02-21T08:16:34;95155.48;;;8.16;90.11
43553;BME280;29153;42.696;23.218;2024-02-21T08:19:01;95162.30;;;8.29;87.21
43553;BME280;29153;42.696;23.218;2024-02-21T08:21:30;95163.61;;;8.29;85.88
43553;BME280;29153;42.696;23.218;2024-02-21T08:23:58;95168.80;;;8.43;86.60
43553;BME280;29153;42.696;23.218;2024-02-21T08:26:25;95166.51;;;8.30;84.47
43553;BME280;29153;42.696;23.218;2024-02-21T08:28:54;95167.23;;;8.42;83.88
43553;BME280;29153;42.696;23.218;2024-02-21T08:31:22;95157.94;;;8.40;83.22
43553;BME280;29153;42.696;23.218;2024-02-21T08:33:51;95169.98;;;8.52;82.78
43553;BME280;29153;42.696;23.218;2024-02-21T08:36:19;95171.21;;;8.45;82.27
43553;BME280;29153;42.696;23.218;2024-02-21T08:38:46;95165.62;;;8.41;82.18
43553;BME280;29153;42.696;23.218;2024-02-21T08:41:14;95168.03;;;8.43;83.05
43553;BME280;29153;42.696;23.218;2024-02-21T08:43:43;95174.42;;;8.47;83.21
43553;BME280;29153;42.696;23.218;2024-02-21T08:46:10;95175.30;;;8.36;81.27
43553;BME280;29153;42.696;23.218;2024-02-21T08:48:38;95169.27;;;8.38;83.87
43553;BME280;29153;42.696;23.218;2024-02-21T08:51:06;95171.94;;;8.40;81.96
43553;BME280;29153;42.696;23.218;2024-02-21T08:53:33;95174.63;;;8.43;82.74
43553;BME280;29153;42.696;23.218;2024-02-21T08:56:01;95168.97;;;8.34;82.43
43553;BME280;29153;42.696;23.218;2024-02-21T08:58:28;95164.02;;;8.40;82.17
43553;BME280;29153;42.696;23.218;2024-02-21T09:00:56;95170.83;;;8.36;81.25
43553;BME280;29153;42.696;23.218;2024-02-21T09:03:23;95171.33;;;8.33;81.27
43553;BME280;29153;42.696;23.218;2024-02-21T09:05:52;95171.03;;;8.15;83.79
43553;BME280;29153;42.696;23.218;2024-02-21T09:08:20;95166.51;;;8.30;83.86
43553;BME280;29153;42.696;23.218;2024-02-21T09:10:48;95172.72;;;8.38;83.19
43553;BME280;29153;42.696;23.218;2024-02-21T09:13:16;95171.78;;;8.30;82.45
43553;BME280;29153;42.696;23.218;2024-02-21T09:15:44;95167.88;;;8.33;83.66
43553;BME280;29153;42.696;23.218;2024-02-21T09:18:11;95174.27;;;8.37;83.06
43553;BME280;29153;42.696;23.218;2024-02-21T09:20:39;95172.39;;;8.54;83.08
43553;BME280;29153;42.696;23.218;2024-02-21T09:23:06;95168.37;;;8.71;81.66
43553;BME280;29153;42.696;23.218;2024-02-21T09:25:33;95151.44;;;8.69;83.56
43553;BME280;29153;42.696;23.218;2024-02-21T09:28:02;95164.02;;;8.81;82.53
43553;BME280;29153;42.696;23.218;2024-02-21T09:30:30;95169.86;;;8.86;81.29
43553;BME280;29153;42.696;23.218;2024-02-21T09:32:57;95167.42;;;8.79;78.47
43553;BME280;29153;42.696;23.218;2024-02-21T09:35:28;95168.39;;;8.73;79.87
43553;BME280;29153;42.696;23.218;2024-02-21T09:37:56;95173.66;;;8.92;79.25
43553;BME280;29153;42.696;23.218;2024-02-21T09:40:23;95167.48;;;9.06;79.75
43553;BME280;29153;42.696;23.218;2024-02-21T09:42:57;95169.84;;;9.05;78.67
43553;BME280;29153;42.696;23.218;2024-02-21T09:45:23;95160.66;;;9.37;81.64
43553;BME280;29153;42.696;23.218;2024-02-21T09:50:55;95157.50;;;10.38;77.85
43553;BME280;29153;42.696;23.218;2024-02-21T09:53:25;95157.50;;;10.38;77.85
43553;BME280;29153;42.696;23.218;2024-02-21T09:55:53;95161.72;;;10.36;75.88
43553;BME280;29153;42.696;23.218;2024-02-21T09:58:23;95167.70;;;10.19;72.82
43553;BME280;29153;42.696;23.218;2024-02-21T10:00:52;95167.70;;;10.19;72.82
43553;BME280;29153;42.696;23.218;2024-02-21T10:03:19;95164.08;;;9.96;71.20
43553;BME280;29153;42.696;23.218;2024-02-21T10:05:49;95153.64;;;9.79;71.70
43553;BME280;29153;42.696;23.218;2024-02-21T10:08:20;95157.55;;;10.09;73.24
43553;BME280;29153;42.696;23.218;2024-02-21T10:10:47;95152.14;;;9.93;69.81
43553;BME280;29153;42.696;23.218;2024-02-21T10:13:28;95152.14;;;9.93;69.81
43553;BME280;29153;42.696;23.218;2024-02-21T10:16:06;95152.08;;;9.83;70.11
43553;BME280;29153;42.696;23.218;2024-02-21T10:18:34;95143.44;;;9.95;69.78
43553;BME280;29153;42.696;23.218;2024-02-21T10:21:06;95138.14;;;9.98;69.63
43553;BME280;29153;42.696;23.218;2024-02-21T10:23:48;95135.86;;;10.12;71.55
43553;BME280;29153;42.696;23.218;2024-02-21T10:26:17;95138.47;;;10.06;68.28
43553;BME280;29153;42.696;23.218;2024-02-21T10:28:46;95120.22;;;10.47;69.39
43553;BME280;29153;42.696;23.218;2024-02-21T10:31:29;95120.22;;;10.47;69.39
43553;BME280;29153;42.696;23.218;2024-02-21T10:33:59;95115.54;;;10.74;66.67
43553;BME280;29153;42.696;23.218;2024-02-21T10:36:28;95107.11;;;10.87;65.53
43553;BME280;29153;42.696;23.218;2024-02-21T10:38:55;95093.67;;;11.19;65.94
43553;BME280;29153;42.696;23.218;2024-02-21T10:41:24;95096.08;;;11.38;65.32
43553;BME280;29153;42.696;23.218;2024-02-21T10:43:54;95088.38;;;11.19;60.99
43553;BME280;29153;42.696;23.218;2024-02-21T10:46:23;95087.08;;;11.29;60.73
43553;BME280;29153;42.696;23.218;2024-02-21T10:49:25;95079.90;;;11.55;59.83
43553;BME280;29153;42.696;23.218;2024-02-21T10:52:09;95080.45;;;11.57;61.98
43553;BME280;29153;42.696;23.218;2024-02-21T10:54:56;95074.62;;;11.63;57.50
43553;BME280;29153;42.696;23.218;2024-02-21T10:57:17;95059.48;;;11.61;56.97
43553;BME280;29153;42.696;23.218;2024-02-21T10:59:45;95056.31;;;11.46;57.17
43553;BME280;29153;42.696;23.218;2024-02-21T11:02:15;95048.06;;;11.48;57.85
43553;BME280;29153;42.696;23.218;2024-02-21T11:04:43;95052.84;;;11.43;57.45
43553;BME280;29153;42.696;23.218;2024-02-21T11:07:12;95048.09;;;11.75;55.68
43553;BME280;29153;42.696;23.218;2024-02-21T11:09:49;95042.76;;;11.42;53.78
43553;BME280;29153;42.696;23.218;2024-02-21T11:12:09;95056.56;;;11.39;55.16
43553;BME280;29153;42.696;23.218;2024-02-21T11:14:38;95053.09;;;11.14;52.19
43553;BME280;29153;42.696;23.218;2024-02-21T11:17:18;95041.95;;;11.07;55.63
43553;BME280;29153;42.696;23.218;2024-02-21T11:19:47;95048.58;;;10.99;54.05
43553;BME280;29153;42.696;23.218;2024-02-21T11:22:15;95042.16;;;10.80;55.36
43553;BME280;29153;42.696;23.218;2024-02-21T11:24:43;95042.16;;;10.80;55.36
43553;BME280;29153;42.696;23.218;2024-02-21T11:27:16;95039.95;;;10.49;53.88
43553;BME280;29153;42.696;23.218;2024-02-21T11:29:48;95041.34;;;10.64;55.42
43553;BME280;29153;42.696;23.218;2024-02-21T11:32:19;95038.17;;;10.75;54.21
43553;BME280;29153;42.696;23.218;2024-02-21T11:35:03;95039.99;;;10.59;55.36
43553;BME280;29153;42.696;23.218;2024-02-21T11:37:32;95036.83;;;10.70;55.02
43553;BME280;29153;42.696;23.218;2024-02-21T11:40:01;95035.77;;;10.61;55.00
43553;BME280;29153;42.696;23.218;2024-02-21T11:42:30;95034.70;;;10.57;54.48
43553;BME280;29153;42.696;23.218;2024-02-21T11:44:57;95030.95;;;10.50;56.37
43553;BME280;29153;42.696;23.218;2024-02-21T11:47:25;95027.27;;;10.59;54.98
43553;BME280;29153;42.696;23.218;2024-02-21T11:49:52;95015.86;;;10.48;54.56
43553;BME280;29153;42.696;23.218;2024-02-21T11:52:24;95019.54;;;10.39;55.40
43553;BME280;29153;42.696;23.218;2024-02-21T11:54:52;95007.33;;;10.31;56.19
43553;BME280;29153;42.696;23.218;2024-02-21T11:57:21;95011.22;;;10.16;58.54
43553;BME280;29153;42.696;23.218;2024-02-21T11:59:48;95011.22;;;10.16;58.54
43553;BME280;29153;42.696;23.218;2024-02-21T12:02:17;95011.72;;;10.13;59.28
43553;BME280;29153;42.696;23.218;2024-02-21T12:04:45;95008.02;;;10.14;61.40
43553;BME280;29153;42.696;23.218;2024-02-21T12:07:12;95009.50;;;9.97;60.48
43553;BME280;29153;42.696;23.218;2024-02-21T12:09:42;95004.67;;;9.81;60.36
43553;BME280;29153;42.696;23.218;2024-02-21T12:12:09;95004.67;;;9.81;60.36
43553;BME280;29153;42.696;23.218;2024-02-21T12:14:37;95004.11;;;9.74;60.49
43553;BME280;29153;42.696;23.218;2024-02-21T12:17:05;95001.22;;;9.78;61.17
43553;BME280;29153;42.696;23.218;2024-02-21T12:19:33;94999.93;;;9.83;61.52
43553;BME280;29153;42.696;23.218;2024-02-21T12:22:01;95000.48;;;9.90;61.80
43553;BME280;29153;42.696;23.218;2024-02-21T12:24:30;94994.12;;;9.89;60.12
43553;BME280;29153;42.696;23.218;2024-02-21T12:26:58;94988.02;;;9.88;59.20
43553;BME280;29153;42.696;23.218;2024-02-21T12:29:26;94988.02;;;9.88;59.20
43553;BME280;29153;42.696;23.218;2024-02-21T12:31:55;94983.05;;;9.94;59.61
43553;BME280;29153;42.696;23.218;2024-02-21T12:34:23;94992.24;;;9.84;57.75
43553;BME280;29153;42.696;23.218;2024-02-21T12:36:52;94994.89;;;9.79;59.78
43553;BME280;29153;42.696;23.218;2024-02-21T12:39:20;94992.55;;;9.88;59.18
43553;BME280;29153;42.696;23.218;2024-02-21T12:41:47;94994.64;;;9.83;58.10
43553;BME280;29153;42.696;23.218;2024-02-21T12:44:15;94987.62;;;10.12;58.61
43553;BME280;29153;42.696;23.218;2024-02-21T12:46:44;94990.89;;;10.26;59.73
43553;BME280;29153;42.696;23.218;2024-02-21T12:49:12;94983.80;;;10.49;57.79
43553;BME280;29153;42.696;23.218;2024-02-21T12:51:39;94983.80;;;10.49;57.79
43553;BME280;29153;42.696;23.218;2024-02-21T12:54:08;94979.59;;;10.59;58.88
43553;BME280;29153;42.696;23.218;2024-02-21T12:56:37;94979.59;;;10.59;58.88
43553;BME280;29153;42.696;23.218;2024-02-21T12:59:06;94973.73;;;10.49;57.99
43553;BME280;29153;42.696;23.218;2024-02-21T13:01:37;94974.27;;;10.43;60.07
43553;BME280;29153;42.696;23.218;2024-02-21T13:04:05;94975.00;;;10.29;62.14
43553;BME280;29153;42.696;23.218;2024-02-21T13:06:32;94974.58;;;9.97;64.10
43553;BME280;29153;42.696;23.218;2024-02-21T13:09:00;94957.08;;;9.86;64.53